Terminal Aerodrome Forecast
Issued by NWS

Home | Current Version | Previous Version | Text Only | Print | Product List | Glossary On
Versions: 1 2 3 4 5 6 7 8 9 10 11 12
000
FTUS44 KJAN 260539
TAFHKS
TAF
KHKS 260539Z 2606/2706 18005KT P6SM VCSH BKN015 OVC090
     FM261000 18004KT 5SM BR BKN008 BKN250
     FM261130 18004KT 2SM BR BKN004 BKN250
     FM261400 19005KT 6SM BR BKN008 BKN250
     FM261600 20008KT P6SM FEW025 SCT250=

USA.gov is the U.S. government's official web portal to all federal, state and local government web resources and services.